Time;durP1;ratioP1;P1;durP2;ratioP2;P2;SDS_P1;SDS_P2;PMS_P1;PMS_P2;Temp;Humidity;BMP_temperature;BMP_pressure;BME280_temperature;BME280_humidity;BME280_pressure;Samples;Min_cycle;Max_cycle;Signal;HPM_P1;HPM_P2
2022/11/06 00:01:24;;;;;;;12.87;7.50;;;9.10;84.60;;;;;;4985887;28;20528;-91
2022/11/06 00:03:54;;;;;;;12.23;7.80;;;9.10;84.50;;;;;;4985811;28;20178;-91
2022/11/06 00:09:07;;;;;;;13.87;7.47;;;9.10;84.80;;;;;;5002330;28;20221;-91
2022/11/06 00:11:33;;;;;;;12.13;6.63;;;9.10;84.40;;;;;;4984094;28;20194;-91
2022/11/06 00:14:00;;;;;;;17.37;7.13;;;9.20;83.90;;;;;;4984229;28;20200;-92
2022/11/06 00:16:26;;;;;;;12.60;5.77;;;9.20;83.80;;;;;;4986955;28;20229;-92
2022/11/06 00:18:53;;;;;;;10.33;7.47;;;9.20;83.90;;;;;;4986717;28;20182;-93
2022/11/06 00:21:29;;;;;;;11.17;7.40;;;9.20;84.00;;;;;;4986358;28;20181;-92
2022/11/06 00:24:00;;;;;;;18.97;5.90;;;9.20;83.70;;;;;;4987680;28;20170;-92
2022/11/06 00:26:29;;;;;;;9.73;6.13;;;9.20;84.00;;;;;;4985683;28;20166;-91
2022/11/06 00:28:58;;;;;;;9.03;6.50;;;9.20;84.00;;;;;;4986253;28;20182;-91
2022/11/06 00:31:27;;;;;;;13.43;6.33;;;9.20;84.30;;;;;;4984571;28;20265;-92
2022/11/06 00:33:54;;;;;;;9.83;4.93;;;9.20;84.20;;;;;;4986031;28;20182;-92
2022/11/06 00:36:21;;;;;;;7.00;5.80;;;9.20;84.00;;;;;;4984670;28;20269;-91
2022/11/06 00:38:50;;;;;;;13.70;6.23;;;9.20;83.90;;;;;;4984993;28;20177;-92
2022/11/06 00:41:16;;;;;;;8.20;6.00;;;9.20;84.10;;;;;;4984494;28;20232;-91
2022/11/06 00:43:46;;;;;;;11.77;6.53;;;9.20;84.50;;;;;;4985022;28;20209;-91
2022/11/06 00:46:13;;;;;;;15.20;6.20;;;9.20;84.30;;;;;;4982860;28;20541;-92
2022/11/06 00:48:40;;;;;;;9.80;6.47;;;9.20;84.30;;;;;;4984140;28;20181;-92
2022/11/06 00:51:12;;;;;;;13.67;6.60;;;9.10;84.50;;;;;;4983856;28;20178;-93
2022/11/06 00:53:38;;;;;;;7.30;5.70;;;9.20;84.70;;;;;;4983179;28;20182;-91
2022/11/06 00:56:12;;;;;;;9.13;6.30;;;9.20;85.00;;;;;;4984462;28;20200;-91
2022/11/06 00:58:39;;;;;;;10.07;5.80;;;9.10;85.30;;;;;;4985117;28;20169;-92
2022/11/06 01:01:13;;;;;;;10.17;6.70;;;9.10;85.40;;;;;;4985425;28;20587;-91
2022/11/06 01:03:40;;;;;;;9.10;6.37;;;9.10;85.70;;;;;;4989200;28;20163;-91
2022/11/06 01:06:15;;;;;;;8.47;6.23;;;9.00;85.90;;;;;;4988383;28;20237;-92
2022/11/06 01:08:41;;;;;;;10.13;5.47;;;9.00;85.90;;;;;;4988567;28;20197;-91
2022/11/06 01:11:08;;;;;;;12.40;6.97;;;9.00;86.20;;;;;;4987174;28;20171;-93
2022/11/06 01:13:35;;;;;;;9.13;6.10;;;9.00;86.40;;;;;;4986459;28;20182;-92
2022/11/06 01:16:01;;;;;;;10.20;6.00;;;9.00;86.10;;;;;;4989898;28;20201;-91
2022/11/06 01:18:26;;;;;;;12.50;6.03;;;9.00;86.10;;;;;;4984734;28;20174;-92
2022/11/06 01:20:52;;;;;;;9.67;6.47;;;9.00;86.20;;;;;;4987713;28;20221;-92
2022/11/06 01:23:18;;;;;;;7.43;5.60;;;9.00;85.90;;;;;;4984302;28;20205;-92
2022/11/06 01:25:54;;;;;;;7.30;5.67;;;9.10;85.80;;;;;;4982624;28;20177;-91
2022/11/06 01:28:19;;;;;;;12.23;6.17;;;9.10;85.80;;;;;;4981678;28;20173;-90
2022/11/06 01:30:47;;;;;;;13.80;6.60;;;9.10;85.70;;;;;;4981123;28;20179;-92
2022/11/06 01:33:26;;;;;;;9.17;6.10;;;9.10;85.60;;;;;;4998882;28;20208;-90
2022/11/06 01:35:56;;;;;;;9.93;5.70;;;9.10;85.60;;;;;;4981887;28;20210;-90
2022/11/06 01:38:22;;;;;;;10.43;6.47;;;9.20;85.30;;;;;;4982293;28;20660;-91
2022/11/06 01:40:48;;;;;;;8.87;5.30;;;9.20;85.00;;;;;;4982631;28;20182;-92
2022/11/06 01:43:23;;;;;;;14.30;5.53;;;9.20;85.00;;;;;;4982414;28;20268;-91
2022/11/06 01:45:51;;;;;;;14.20;7.50;;;9.20;85.00;;;;;;4982611;28;20686;-91
2022/11/06 01:48:21;;;;;;;12.00;5.40;;;9.20;85.00;;;;;;4980918;28;20181;-92
2022/11/06 01:50:50;;;;;;;11.10;5.50;;;9.20;84.90;;;;;;4983183;28;20632;-92
2022/11/06 01:53:17;;;;;;;10.40;4.80;;;9.20;84.90;;;;;;4982918;28;20292;-91
2022/11/06 01:55:47;;;;;;;10.37;5.10;;;9.30;84.80;;;;;;4985376;28;20201;-92
2022/11/06 01:58:16;;;;;;;4.90;3.83;;;9.20;84.80;;;;;;4984421;28;20262;-91
2022/11/06 02:00:43;;;;;;;13.03;5.37;;;9.30;84.40;;;;;;4988607;28;20178;-93
2022/11/06 02:03:11;;;;;;;14.60;5.57;;;9.30;84.70;;;;;;4988192;28;20200;-92
2022/11/06 02:05:37;;;;;;;9.07;5.50;;;9.20;84.80;;;;;;4988428;28;20178;-92
2022/11/06 02:08:05;;;;;;;4.83;4.13;;;9.30;85.00;;;;;;4988489;28;20190;-92
2022/11/06 02:10:31;;;;;;;7.40;5.77;;;9.30;84.60;;;;;;4968002;28;20205;-91
2022/11/06 02:13:04;;;;;;;5.27;4.00;;;9.30;84.00;;;;;;4985730;28;20198;-92
2022/11/06 02:15:49;;;;;;;8.73;4.57;;;9.50;84.00;;;;;;4987840;28;20571;-92
2022/11/06 02:18:23;;;;;;;8.03;5.50;;;9.50;83.60;;;;;;4986795;28;20205;-91
2022/11/06 02:21:13;;;;;;;11.07;4.90;;;9.50;83.70;;;;;;4989151;28;20170;-91
2022/11/06 02:24:15;;;;;;;12.13;5.40;;;9.50;84.10;;;;;;4988855;28;20170;-91
2022/11/06 02:27:00;;;;;;;7.30;5.50;;;9.50;83.80;;;;;;4989575;28;20174;-92
2022/11/06 02:29:43;;;;;;;10.50;5.40;;;9.40;84.10;;;;;;4988766;28;20208;-91
2022/11/06 02:32:14;;;;;;;6.80;4.30;;;9.50;83.80;;;;;;4986934;28;20202;-91
2022/11/06 02:34:42;;;;;;;9.23;4.77;;;9.50;83.70;;;;;;4986054;28;20174;-91
2022/11/06 02:37:15;;;;;;;6.87;5.10;;;9.50;83.50;;;;;;4986040;28;20282;-91
2022/11/06 02:39:46;;;;;;;7.70;4.40;;;9.50;83.70;;;;;;4988492;28;20163;-91
2022/11/06 02:42:17;;;;;;;10.33;5.80;;;9.40;84.30;;;;;;4985778;28;20577;-91
2022/11/06 02:44:45;;;;;;;8.17;5.43;;;9.50;84.30;;;;;;4986520;28;20686;-91
2022/11/06 02:47:13;;;;;;;8.73;5.23;;;9.50;84.30;;;;;;4987260;28;20205;-92
2022/11/06 02:49:52;;;;;;;10.40;4.50;;;9.50;84.10;;;;;;4985665;28;20206;-92
2022/11/06 02:52:43;;;;;;;9.00;5.63;;;9.50;83.80;;;;;;4987014;28;20220;-91
2022/11/06 02:55:41;;;;;;;7.53;4.50;;;9.50;83.50;;;;;;4987352;28;20198;-91
2022/11/06 02:58:45;;;;;;;7.50;4.60;;;9.60;83.60;;;;;;4986030;28;20170;-90
2022/11/06 03:01:17;;;;;;;6.13;4.20;;;9.60;83.30;;;;;;4926636;29;20327;-90
2022/11/06 03:03:47;;;;;;;7.97;5.20;;;9.60;83.00;;;;;;4977017;28;20240;-91
2022/11/06 03:06:26;;;;;;;9.37;5.97;;;9.60;83.00;;;;;;4986619;28;20256;-92
2022/11/06 03:09:00;;;;;;;7.17;4.03;;;9.60;83.30;;;;;;4987663;28;20237;-91
2022/11/06 03:11:29;;;;;;;12.10;5.43;;;9.60;83.10;;;;;;4985521;28;20188;-91
2022/11/06 03:14:18;;;;;;;11.37;5.27;;;9.60;83.50;;;;;;4986204;28;20205;-91
2022/11/06 03:17:10;;;;;;;16.70;5.90;;;9.60;83.50;;;;;;4972829;28;20218;-91
2022/11/06 03:19:56;;;;;;;9.40;5.67;;;9.60;83.50;;;;;;4985110;28;20223;-92
2022/11/06 03:22:49;;;;;;;8.83;4.57;;;9.60;83.60;;;;;;4985553;28;20206;-91
2022/11/06 03:25:22;;;;;;;6.07;4.47;;;9.60;83.20;;;;;;4984473;28;20178;-92
2022/11/06 03:28:09;;;;;;;5.23;4.03;;;9.70;82.90;;;;;;4984532;28;20249;-91
2022/11/06 03:31:01;;;;;;;5.03;3.97;;;9.60;83.40;;;;;;4984211;28;20174;-92
2022/11/06 03:33:40;;;;;;;7.07;4.90;;;9.70;82.90;;;;;;4985707;28;20201;-91
2022/11/06 03:36:33;;;;;;;11.07;5.40;;;9.60;83.30;;;;;;4985650;28;20206;-91
2022/11/06 03:39:08;;;;;;;10.60;5.03;;;9.70;83.20;;;;;;4986464;28;20166;-91
2022/11/06 03:42:00;;;;;;;9.67;4.70;;;9.60;83.20;;;;;;4986071;28;20201;-91
2022/11/06 03:44:27;;;;;;;11.20;4.23;;;9.70;82.90;;;;;;4984695;28;20176;-91
2022/11/06 03:47:20;;;;;;;11.53;4.83;;;9.60;83.60;;;;;;4984519;28;20216;-92
2022/11/06 03:49:56;;;;;;;7.17;5.00;;;9.50;83.90;;;;;;4985966;28;20241;-92
2022/11/06 03:52:30;;;;;;;13.33;5.10;;;9.50;84.20;;;;;;4984540;28;20579;-91
2022/11/06 03:55:11;;;;;;;11.67;5.40;;;9.60;83.70;;;;;;4983774;28;20562;-92
2022/11/06 03:57:46;;;;;;;9.57;5.73;;;9.60;83.90;;;;;;4982615;28;20564;-92
2022/11/06 04:00:12;;;;;;;8.80;4.57;;;9.60;83.90;;;;;;4984505;28;20173;-91
2022/11/06 04:02:42;;;;;;;10.00;6.30;;;9.60;83.70;;;;;;4983194;28;20194;-91
2022/11/06 04:05:19;;;;;;;7.30;4.80;;;9.60;84.10;;;;;;4967171;28;20182;-91
2022/11/06 04:16:09;;;;;;;11.60;5.60;;;9.50;84.10;;;;;;4996519;28;20197;-90
2022/11/06 04:18:34;;;;;;;11.17;5.23;;;9.50;84.40;;;;;;4996605;28;20195;-91
2022/11/06 04:21:31;;;;;;;8.67;4.70;;;9.50;84.50;;;;;;4979014;28;20197;-90
2022/11/06 04:27:01;;;;;;;9.60;4.47;;;9.50;84.60;;;;;;4996683;28;20173;-90
2022/11/06 04:29:36;;;;;;;5.63;5.00;;;9.50;84.30;;;;;;4979744;28;20178;-90
2022/11/06 04:32:21;;;;;;;9.50;5.10;;;9.50;84.30;;;;;;4978500;28;20201;-91
2022/11/06 04:35:12;;;;;;;8.47;5.57;;;9.60;84.40;;;;;;4979301;28;20174;-91
2022/11/06 04:37:37;;;;;;;6.30;4.30;;;9.60;84.00;;;;;;4979370;28;20163;-91
2022/11/06 04:40:18;;;;;;;12.33;5.60;;;9.60;84.00;;;;;;4995956;28;20172;-91
2022/11/06 04:43:10;;;;;;;7.93;5.07;;;9.60;83.80;;;;;;4978439;28;20244;-91
2022/11/06 04:45:40;;;;;;;11.80;4.90;;;9.60;84.10;;;;;;4978590;28;20173;-91
2022/11/06 04:48:07;;;;;;;7.77;4.33;;;9.60;84.20;;;;;;4979030;28;20189;-90
2022/11/06 04:50:37;;;;;;;13.87;5.20;;;9.50;84.30;;;;;;4978107;28;20177;-90
2022/11/06 04:53:04;;;;;;;7.10;5.20;;;9.50;84.30;;;;;;4978269;28;20227;-91
2022/11/06 04:55:30;;;;;;;6.37;5.23;;;9.50;84.30;;;;;;4978276;28;20198;-91
2022/11/06 04:57:55;;;;;;;6.27;5.17;;;9.50;84.70;;;;;;4978167;28;20174;-90
2022/11/06 05:00:21;;;;;;;8.90;5.93;;;9.40;85.50;;;;;;4978381;28;20235;-90
2022/11/06 05:02:47;;;;;;;5.67;4.20;;;9.40;85.20;;;;;;4995636;28;20193;-91
2022/11/06 05:05:12;;;;;;;8.73;5.30;;;9.40;85.10;;;;;;4977850;28;20210;-91
2022/11/06 05:07:38;;;;;;;9.60;5.60;;;9.40;85.20;;;;;;4977893;28;20741;-90
2022/11/06 05:10:04;;;;;;;9.60;4.37;;;9.50;84.80;;;;;;4977814;28;20193;-91
2022/11/06 05:12:29;;;;;;;9.30;5.00;;;9.40;84.60;;;;;;4977860;28;20201;-90
2022/11/06 05:14:55;;;;;;;9.00;4.67;;;9.50;84.40;;;;;;4978299;28;20185;-91
2022/11/06 05:17:20;;;;;;;9.67;4.67;;;9.50;84.50;;;;;;4977892;28;20190;-91
2022/11/06 05:19:46;;;;;;;12.50;5.23;;;9.50;84.30;;;;;;4995678;28;20228;-91
2022/11/06 05:24:56;;;;;;;8.97;5.03;;;9.50;84.70;;;;;;4995406;28;20189;-91
2022/11/06 05:27:21;;;;;;;8.70;4.50;;;9.50;85.10;;;;;;4977516;28;20652;-91
2022/11/06 05:29:47;;;;;;;10.27;4.57;;;9.40;86.20;;;;;;4978308;28;20554;-91
2022/11/06 05:32:12;;;;;;;9.50;5.67;;;9.30;87.10;;;;;;4977489;28;20198;-90
2022/11/06 05:34:38;;;;;;;6.33;4.23;;;9.20;87.80;;;;;;4977306;28;20651;-90
2022/11/06 05:37:03;;;;;;;12.57;5.53;;;9.10;88.20;;;;;;4994414;28;20556;-91
2022/11/06 05:39:29;;;;;;;8.20;4.97;;;9.00;88.60;;;;;;4977126;28;20178;-90
2022/11/06 05:41:54;;;;;;;7.90;5.10;;;9.00;88.70;;;;;;4994659;28;20711;-91
2022/11/06 05:44:20;;;;;;;6.00;3.63;;;9.10;88.20;;;;;;4976973;28;20185;-90
2022/11/06 05:46:45;;;;;;;11.23;5.83;;;9.10;88.50;;;;;;4976938;28;20174;-90
2022/11/06 05:49:11;;;;;;;16.90;8.47;;;9.00;88.60;;;;;;4976249;28;20182;-91
2022/11/06 05:51:37;;;;;;;11.57;5.90;;;9.00;88.90;;;;;;4976882;28;20285;-90
2022/11/06 05:54:03;;;;;;;16.73;5.57;;;9.00;89.20;;;;;;4994186;28;20170;-90
2022/11/06 05:56:28;;;;;;;6.90;4.70;;;8.90;89.80;;;;;;4976616;28;20213;-91
2022/11/06 05:58:54;;;;;;;10.00;6.43;;;8.80;89.90;;;;;;4976774;28;20178;-91
2022/11/06 06:01:20;;;;;;;7.77;4.90;;;8.90;90.20;;;;;;4976655;28;20178;-91
2022/11/06 06:03:45;;;;;;;12.00;6.03;;;8.80;90.50;;;;;;4977023;28;20178;-90
2022/11/06 06:06:11;;;;;;;9.83;5.87;;;8.80;90.50;;;;;;4976781;28;20186;-91
2022/11/06 06:08:36;;;;;;;17.63;6.90;;;8.80;90.60;;;;;;4977160;28;20208;-91
2022/11/06 06:11:06;;;;;;;8.83;6.03;;;8.80;90.90;;;;;;4976689;28;20652;-92
2022/11/06 06:13:31;;;;;;;20.27;6.63;;;8.70;91.20;;;;;;4976966;28;20328;-90
2022/11/06 06:16:01;;;;;;;13.50;6.63;;;8.70;91.70;;;;;;4977036;28;20244;-92
2022/11/06 06:18:26;;;;;;;12.37;6.80;;;8.60;92.10;;;;;;4978132;28;20253;-92
2022/11/06 06:20:52;;;;;;;11.93;6.33;;;8.60;92.20;;;;;;4978417;28;20182;-91
2022/11/06 06:23:20;;;;;;;10.53;6.57;;;8.60;92.30;;;;;;4996007;28;20611;-92
2022/11/06 06:25:46;;;;;;;11.07;6.40;;;8.60;92.30;;;;;;4996208;28;20667;-92
2022/11/06 06:28:11;;;;;;;14.77;7.70;;;8.60;92.10;;;;;;4995632;28;20173;-92
2022/11/06 06:30:40;;;;;;;18.13;8.13;;;8.60;91.80;;;;;;4978064;28;20201;-92
2022/11/06 06:33:06;;;;;;;11.17;6.77;;;8.60;91.80;;;;;;4995723;28;20202;-91
2022/11/06 06:35:32;;;;;;;8.57;6.30;;;8.70;91.70;;;;;;4978038;28;20225;-92
2022/11/06 06:37:58;;;;;;;10.87;6.97;;;8.70;91.60;;;;;;4995319;28;20221;-91
2022/11/06 06:40:25;;;;;;;16.67;8.00;;;8.70;91.50;;;;;;4977686;28;20170;-91
2022/11/06 06:42:54;;;;;;;15.07;6.70;;;8.70;91.30;;;;;;4995112;28;20193;-91
2022/11/06 06:45:19;;;;;;;11.73;6.83;;;8.70;91.40;;;;;;4994587;28;20178;-92
2022/11/06 06:47:48;;;;;;;7.67;6.57;;;8.70;91.70;;;;;;4995432;28;20591;-92
2022/11/06 06:50:16;;;;;;;13.03;7.10;;;8.70;91.50;;;;;;4978760;28;20667;-92
2022/11/06 06:52:46;;;;;;;11.13;6.70;;;8.70;91.60;;;;;;4977452;28;20217;-92
2022/11/06 06:55:11;;;;;;;13.70;6.70;;;8.70;91.70;;;;;;4977838;28;20210;-92
2022/11/06 06:57:40;;;;;;;14.07;6.60;;;8.70;91.80;;;;;;4977756;28;20535;-92
2022/11/06 07:00:06;;;;;;;8.27;5.27;;;8.70;91.70;;;;;;4977243;28;20178;-92
2022/11/06 07:02:32;;;;;;;10.27;5.63;;;8.70;91.90;;;;;;4980410;28;20201;-91
2022/11/06 07:05:00;;;;;;;15.50;7.10;;;8.70;92.10;;;;;;4980272;28;20182;-91
2022/11/06 07:07:26;;;;;;;13.23;7.03;;;8.70;92.20;;;;;;4997404;28;20178;-91
2022/11/06 07:09:51;;;;;;;7.63;5.77;;;8.70;92.30;;;;;;4980385;28;20224;-91
2022/11/06 07:12:17;;;;;;;9.03;5.37;;;8.70;92.10;;;;;;4997690;28;20218;-91
2022/11/06 07:14:43;;;;;;;5.37;4.83;;;8.70;92.00;;;;;;4997685;28;20178;-92
2022/11/06 07:17:08;;;;;;;15.93;6.83;;;8.70;91.90;;;;;;4980663;28;20648;-91
2022/11/06 07:19:34;;;;;;;11.97;6.97;;;8.70;91.80;;;;;;4980396;28;20272;-91
2022/11/06 07:21:59;;;;;;;16.23;7.47;;;8.80;91.90;;;;;;4980675;28;20202;-91
2022/11/06 07:24:25;;;;;;;12.73;6.53;;;8.80;91.80;;;;;;4980123;28;20182;-92
2022/11/06 07:26:51;;;;;;;4.83;3.90;;;8.70;91.70;;;;;;4980830;28;20186;-92
2022/11/06 07:29:16;;;;;;;14.33;6.70;;;8.80;91.50;;;;;;4980096;28;20189;-91
2022/11/06 07:31:42;;;;;;;10.53;6.17;;;8.80;91.50;;;;;;4979818;28;20217;-91
2022/11/06 07:34:08;;;;;;;9.87;6.03;;;8.80;91.40;;;;;;4997681;28;20177;-91
2022/11/06 07:36:34;;;;;;;7.63;6.03;;;8.80;91.50;;;;;;4997298;28;20699;-91
2022/11/06 07:39:00;;;;;;;15.77;6.57;;;8.80;91.60;;;;;;4980636;28;20183;-91
2022/11/06 07:41:25;;;;;;;12.43;6.53;;;8.80;91.50;;;;;;4979892;28;20170;-92
2022/11/06 07:43:51;;;;;;;10.27;6.20;;;8.80;91.70;;;;;;4996920;28;20240;-91
2022/11/06 07:46:16;;;;;;;7.43;5.43;;;8.80;91.80;;;;;;4980038;28;20269;-91
2022/11/06 07:48:42;;;;;;;11.63;6.03;;;8.80;91.60;;;;;;4979802;28;20220;-91
2022/11/06 07:51:09;;;;;;;9.50;5.80;;;8.80;91.50;;;;;;4997168;28;20181;-91
2022/11/06 07:53:36;;;;;;;11.27;5.27;;;8.90;91.40;;;;;;4980303;28;20233;-92
2022/11/06 07:56:02;;;;;;;15.97;5.53;;;8.90;91.40;;;;;;4997059;28;20684;-91
2022/11/06 07:58:28;;;;;;;10.43;5.80;;;9.00;91.10;;;;;;4979730;28;20185;-91
2022/11/06 08:01:02;;;;;;;8.73;4.97;;;9.00;91.30;;;;;;4980637;28;20178;-92
2022/11/06 08:03:30;;;;;;;9.00;5.17;;;9.00;90.80;;;;;;4979592;28;20225;-91
2022/11/06 08:06:03;;;;;;;10.80;5.23;;;9.00;90.80;;;;;;4980084;28;20182;-90
2022/11/06 08:08:30;;;;;;;9.63;4.33;;;9.10;90.80;;;;;;4996842;28;20189;-91
2022/11/06 08:11:04;;;;;;;10.70;5.00;;;9.10;90.50;;;;;;4979279;28;20201;-91
2022/11/06 08:13:30;;;;;;;12.20;4.73;;;9.00;90.50;;;;;;4978305;28;20198;-91
2022/11/06 08:16:03;;;;;;;6.53;4.30;;;9.10;90.50;;;;;;4978978;28;20209;-91
2022/11/06 08:18:29;;;;;;;6.23;4.33;;;9.10;90.40;;;;;;4996622;28;20169;-91
2022/11/06 08:20:54;;;;;;;10.73;4.57;;;9.00;90.60;;;;;;4996127;28;20544;-92
2022/11/06 08:23:20;;;;;;;10.00;4.67;;;9.00;90.30;;;;;;4978891;28;20194;-91
2022/11/06 08:25:45;;;;;;;12.87;5.27;;;9.00;90.10;;;;;;4979550;28;20191;-92
2022/11/06 08:28:14;;;;;;;12.17;4.70;;;9.10;90.40;;;;;;4979643;28;20218;-91
2022/11/06 08:30:39;;;;;;;9.20;4.57;;;9.10;90.30;;;;;;4979902;28;20181;-91
2022/11/06 08:33:06;;;;;;;6.33;4.73;;;9.10;90.20;;;;;;4979787;28;20668;-88
2022/11/06 08:35:43;;;;;;;11.50;5.63;;;9.10;90.00;;;;;;4981045;28;20252;-90
2022/11/06 08:38:08;;;;;;;11.60;5.23;;;9.20;90.00;;;;;;4979031;28;20186;-91
2022/11/06 08:40:36;;;;;;;6.33;4.63;;;9.20;90.10;;;;;;4999537;28;20201;-90
2022/11/06 08:43:05;;;;;;;15.33;5.80;;;9.20;90.10;;;;;;4997327;28;20198;-91
2022/11/06 08:45:31;;;;;;;6.07;3.87;;;9.20;89.90;;;;;;4978773;28;20200;-91
2022/11/06 08:48:01;;;;;;;9.90;4.47;;;9.30;89.70;;;;;;4979402;28;20664;-91
2022/11/06 08:50:28;;;;;;;11.27;5.60;;;9.30;89.40;;;;;;4979703;28;20214;-93
2022/11/06 08:52:59;;;;;;;10.27;4.67;;;9.30;89.40;;;;;;4979451;28;20198;-91
2022/11/06 08:55:25;;;;;;;10.87;4.23;;;9.40;89.30;;;;;;4995613;28;20221;-91
2022/11/06 08:58:05;;;;;;;9.33;4.63;;;9.50;88.80;;;;;;4979659;28;20649;-92
2022/11/06 09:00:30;;;;;;;13.10;5.37;;;9.50;88.90;;;;;;4981337;28;20264;-91
2022/11/06 09:03:04;;;;;;;8.77;4.60;;;9.50;89.00;;;;;;4982359;28;20193;-92
2022/11/06 09:05:33;;;;;;;6.67;2.83;;;9.50;88.60;;;;;;4999076;28;20177;-92
2022/11/06 09:07:59;;;;;;;9.47;4.20;;;9.60;88.00;;;;;;4981995;28;20186;-91
2022/11/06 09:10:27;;;;;;;10.23;3.73;;;9.70;88.10;;;;;;4987668;28;20193;-92
2022/11/06 09:13:01;;;;;;;8.40;4.50;;;9.70;87.80;;;;;;5003182;28;20261;-92
2022/11/06 09:15:30;;;;;;;9.53;4.23;;;9.80;88.40;;;;;;4985548;28;20202;-92
2022/11/06 09:17:58;;;;;;;9.00;3.90;;;9.80;88.20;;;;;;4993267;28;20181;-93
2022/11/06 09:20:30;;;;;;;5.17;2.90;;;9.80;88.40;;;;;;4992840;28;20210;-92
2022/11/06 09:23:06;;;;;;;6.27;3.93;;;9.90;87.80;;;;;;4986951;28;20204;-92
2022/11/06 09:25:32;;;;;;;7.00;3.90;;;9.90;88.00;;;;;;4986008;28;20166;-92
2022/11/06 09:27:58;;;;;;;7.00;3.63;;;9.90;87.80;;;;;;4982906;28;20178;-92
2022/11/06 09:30:25;;;;;;;7.13;3.60;;;9.90;88.10;;;;;;4994948;28;20178;-90
2022/11/06 09:32:53;;;;;;;7.67;3.80;;;10.00;87.50;;;;;;4977075;28;20198;-90
2022/11/06 09:35:24;;;;;;;5.87;3.57;;;10.10;87.60;;;;;;4994321;28;20205;-90
2022/11/06 09:37:50;;;;;;;9.80;4.20;;;10.10;87.10;;;;;;4977131;28;20170;-91
2022/11/06 09:40:30;;;;;;;7.37;3.40;;;10.20;87.10;;;;;;4979032;28;20182;-92
2022/11/06 09:43:23;;;;;;;7.87;3.27;;;10.30;87.00;;;;;;4980957;28;20197;-92
2022/11/06 09:45:50;;;;;;;5.33;3.07;;;10.40;87.20;;;;;;4981324;28;20185;-92
2022/11/06 09:48:29;;;;;;;7.77;2.97;;;10.50;86.40;;;;;;4978811;28;20189;-91
2022/11/06 09:51:12;;;;;;;6.87;3.20;;;10.40;85.70;;;;;;4980597;28;20181;-93
2022/11/06 09:53:52;;;;;;;6.90;3.40;;;10.50;85.60;;;;;;4978947;28;20212;-92
2022/11/06 09:56:20;;;;;;;5.80;3.07;;;10.50;86.10;;;;;;4979041;28;20202;-92
2022/11/06 09:58:48;;;;;;;7.17;3.60;;;10.50;85.50;;;;;;4978192;28;20217;-91
2022/11/06 10:01:19;;;;;;;11.37;3.67;;;10.60;85.20;;;;;;4977080;28;20189;-91
2022/11/06 10:03:56;;;;;;;4.63;3.20;;;10.70;85.40;;;;;;4994863;28;20249;-90
2022/11/06 10:06:23;;;;;;;5.57;3.37;;;10.70;85.00;;;;;;4978156;28;20181;-91
2022/11/06 10:08:50;;;;;;;9.87;3.40;;;10.70;84.80;;;;;;4996545;28;20190;-91
2022/11/06 10:11:16;;;;;;;4.53;2.83;;;10.80;85.10;;;;;;4977107;28;20182;-91
2022/11/06 10:13:54;;;;;;;3.40;2.60;;;11.20;84.40;;;;;;4994413;28;20192;-91
2022/11/06 10:16:45;;;;;;;6.10;3.50;;;11.30;83.60;;;;;;4977138;28;20211;-91
2022/11/06 10:19:23;;;;;;;9.93;2.93;;;11.20;83.80;;;;;;4977301;28;20233;-91
2022/11/06 10:22:12;;;;;;;10.77;4.20;;;11.20;84.10;;;;;;4977698;28;20200;-91
2022/11/06 10:24:52;;;;;;;5.07;2.57;;;11.20;84.30;;;;;;4996873;28;20237;-91
2022/11/06 10:27:29;;;;;;;6.83;3.00;;;11.20;83.60;;;;;;4997970;28;20159;-92
2022/11/06 10:30:04;;;;;;;7.47;3.10;;;11.10;83.00;;;;;;4978932;28;20174;-92
2022/11/06 10:32:38;;;;;;;7.50;2.47;;;11.10;83.80;;;;;;4977046;28;20688;-91
2022/11/06 10:35:24;;;;;;;5.87;3.03;;;11.10;83.70;;;;;;4976716;28;20592;-92
2022/11/06 10:37:57;;;;;;;9.00;3.13;;;11.10;84.10;;;;;;4980388;28;20186;-91
2022/11/06 10:40:27;;;;;;;8.10;3.00;;;11.10;84.30;;;;;;4998019;28;20163;-91
2022/11/06 10:43:30;;;;;;;7.03;3.13;;;11.10;83.50;;;;;;4997889;28;20194;-91
2022/11/06 10:46:05;;;;;;;13.50;2.87;;;11.10;83.60;;;;;;4997879;28;20705;-92
2022/11/06 10:48:39;;;;;;;7.97;2.73;;;11.00;83.40;;;;;;4980331;28;20593;-91
2022/11/06 10:51:16;;;;;;;12.87;3.40;;;11.10;83.80;;;;;;4997594;28;20241;-91
2022/11/06 10:53:58;;;;;;;9.90;3.27;;;11.10;83.80;;;;;;4980149;28;20188;-91
2022/11/06 10:56:32;;;;;;;8.00;3.10;;;11.30;83.70;;;;;;4979984;28;20209;-91
2022/11/06 10:58:57;;;;;;;6.83;2.90;;;11.40;83.20;;;;;;4998061;28;20216;-91
2022/11/06 11:01:23;;;;;;;8.87;3.13;;;11.70;83.10;;;;;;4997833;28;20645;-91
2022/11/06 11:03:50;;;;;;;6.27;3.27;;;11.90;82.10;;;;;;4980089;28;20174;-91
2022/11/06 11:06:16;;;;;;;9.23;2.97;;;11.90;81.80;;;;;;4980240;28;20186;-91
2022/11/06 11:08:47;;;;;;;10.63;2.53;;;11.80;81.50;;;;;;4979928;28;20182;-91
2022/11/06 11:11:12;;;;;;;7.13;2.80;;;11.90;82.20;;;;;;4980012;28;20174;-91
2022/11/06 11:13:39;;;;;;;9.87;3.20;;;11.80;80.90;;;;;;4979917;28;20190;-91
2022/11/06 11:16:20;;;;;;;7.77;2.60;;;11.80;81.90;;;;;;4980083;28;20218;-91
2022/11/06 11:18:46;;;;;;;6.60;3.37;;;11.80;81.90;;;;;;4997875;28;20528;-91
2022/11/06 11:21:18;;;;;;;7.77;2.87;;;11.80;81.20;;;;;;4979511;28;20205;-91
2022/11/06 11:24:07;;;;;;;11.57;2.63;;;11.80;82.20;;;;;;4979528;28;20186;-90
2022/11/06 11:26:42;;;;;;;7.07;2.50;;;11.90;81.20;;;;;;4979800;28;20707;-91
2022/11/06 11:29:22;;;;;;;5.63;2.47;;;12.00;82.10;;;;;;4979599;28;20687;-91
2022/11/06 11:31:52;;;;;;;8.03;2.63;;;12.00;81.00;;;;;;4979555;28;20233;-91
2022/11/06 11:34:22;;;;;;;6.77;2.73;;;12.00;80.40;;;;;;4979513;28;20185;-91
2022/11/06 11:36:58;;;;;;;4.43;2.60;;;12.00;80.90;;;;;;4979765;28;20198;-92
2022/11/06 11:39:28;;;;;;;6.77;2.37;;;12.00;81.20;;;;;;4996771;28;20241;-91
2022/11/06 11:42:21;;;;;;;6.70;2.40;;;12.00;80.70;;;;;;4979157;28;20202;-90
2022/11/06 11:45:05;;;;;;;4.87;2.60;;;12.20;81.50;;;;;;4996831;28;20190;-91
2022/11/06 11:47:30;;;;;;;8.20;3.10;;;12.20;81.30;;;;;;4995547;28;20166;-91
2022/11/06 11:49:56;;;;;;;11.23;2.90;;;12.20;80.40;;;;;;4996624;28;20270;-91
2022/11/06 11:52:21;;;;;;;4.07;2.10;;;12.30;80.20;;;;;;4996429;28;20193;-91
2022/11/06 11:54:51;;;;;;;5.40;2.37;;;12.30;79.80;;;;;;4979078;28;20212;-91
2022/11/06 11:57:21;;;;;;;6.23;3.17;;;12.30;80.00;;;;;;4978836;28;20336;-91
2022/11/06 11:59:51;;;;;;;4.57;2.30;;;12.30;80.80;;;;;;4996188;28;20181;-91
2022/11/06 12:02:30;;;;;;;4.40;2.33;;;12.30;80.60;;;;;;4996346;28;20228;-91
2022/11/06 12:05:06;;;;;;;4.10;2.47;;;12.30;80.20;;;;;;4978928;28;20592;-92
2022/11/06 12:07:35;;;;;;;4.27;2.60;;;12.40;80.40;;;;;;4978874;28;20344;-91
2022/11/06 12:10:11;;;;;;;7.60;2.60;;;12.40;80.60;;;;;;4978923;28;20193;-91
2022/11/06 12:12:37;;;;;;;8.10;2.83;;;12.40;80.30;;;;;;4978767;28;20268;-91
2022/11/06 12:15:19;;;;;;;7.37;2.77;;;12.40;79.30;;;;;;4978652;28;20213;-91
2022/11/06 12:18:11;;;;;;;5.10;2.70;;;12.50;79.90;;;;;;4996250;28;20186;-91
2022/11/06 12:20:52;;;;;;;6.57;2.63;;;12.50;79.10;;;;;;4989412;28;20657;-91
2022/11/06 12:23:41;;;;;;;6.13;2.50;;;12.40;79.30;;;;;;4978445;28;20753;-91
2022/11/06 12:26:19;;;;;;;7.50;2.50;;;12.20;78.40;;;;;;4995918;28;20173;-90
2022/11/06 12:28:47;;;;;;;5.13;2.80;;;12.10;79.70;;;;;;4997301;28;20166;-90
2022/11/06 12:31:37;;;;;;;7.40;2.70;;;12.00;79.40;;;;;;4979852;28;20570;-87
2022/11/06 12:34:24;;;;;;;6.90;2.60;;;11.90;79.70;;;;;;4969740;28;20281;-89
2022/11/06 12:37:32;;;;;;;7.10;2.90;;;12.00;80.00;;;;;;4995621;28;20245;-91
2022/11/06 12:40:19;;;;;;;10.23;2.83;;;12.00;79.90;;;;;;4966664;28;20192;-91
2022/11/06 12:42:59;;;;;;;6.17;2.50;;;12.10;79.40;;;;;;4977979;28;20639;-91
2022/11/06 12:45:41;;;;;;;5.90;3.00;;;12.00;79.50;;;;;;4977820;28;20252;-91
2022/11/06 12:48:48;;;;;;;4.60;2.50;;;12.10;79.60;;;;;;4977964;28;20185;-91
2022/11/06 12:51:43;;;;;;;3.03;1.93;;;12.10;79.50;;;;;;4957659;28;20216;-92
2022/11/06 12:54:23;;;;;;;6.57;2.80;;;12.00;79.40;;;;;;4954764;28;20301;-91
2022/11/06 12:56:56;;;;;;;3.67;2.50;;;12.00;78.80;;;;;;4979184;28;20260;-91
2022/11/06 12:59:55;;;;;;;7.87;2.93;;;12.00;78.90;;;;;;4980266;28;20170;-91
2022/11/06 13:02:29;;;;;;;9.90;2.87;;;12.00;79.10;;;;;;4991813;28;20193;-91
2022/11/06 13:05:04;;;;;;;3.13;2.43;;;12.00;79.50;;;;;;4992012;28;20185;-91
2022/11/06 13:07:56;;;;;;;6.23;2.53;;;12.00;80.10;;;;;;4985153;28;20197;-91
2022/11/06 13:10:29;;;;;;;5.00;2.13;;;12.10;79.30;;;;;;4972148;28;20197;-91
2022/11/06 13:13:05;;;;;;;4.70;2.50;;;12.10;79.10;;;;;;4989781;28;20194;-92
2022/11/06 13:15:39;;;;;;;3.83;2.60;;;12.10;78.70;;;;;;4985793;28;20190;-93
2022/11/06 13:18:21;;;;;;;5.67;3.60;;;12.10;79.50;;;;;;4985366;28;20178;-93
2022/11/06 13:21:08;;;;;;;4.43;2.10;;;12.20;79.80;;;;;;5002115;28;20158;-92
2022/11/06 13:23:42;;;;;;;4.63;2.57;;;12.20;79.50;;;;;;4999129;28;20193;-93
2022/11/06 13:26:38;;;;;;;4.57;2.83;;;12.30;79.50;;;;;;4986028;28;20165;-93
2022/11/06 13:29:19;;;;;;;4.43;2.50;;;12.30;79.40;;;;;;4984416;28;20174;-93
2022/11/06 13:31:58;;;;;;;8.17;2.50;;;12.70;79.00;;;;;;4987205;28;20209;-91
2022/11/06 13:34:30;;;;;;;4.57;2.60;;;12.90;78.30;;;;;;4980242;28;20181;-90